Friday, January 18, 2019, 2:36 AM EST
Back to Local

KBGR, Bangor Int'l Airport

Location: Bangor, ME, United States Lat: 44.8
Local Time: 2:36 AM EST ( 7:36 GMT) Lon: -68.817
Time Zone: US/Eastern Elev: 193 ft

Show me the last for .
Show Decoded

2019-01-18 01:53 METAR KBGR 180653Z 13003KT 10SM OVC095 M11/M18 A3030 RMK AO2 SLP267 T11111178 $
                 =
2019-01-18 00:53 METAR KBGR 180553Z COR 16003KT 10SM OVC095 M12/M18 A3032 RMK AO2 SLP274 4/001
                 T11171178 11117 21150 58018 $ =
2019-01-17 23:53 METAR KBGR 180453Z 00000KT 10SM OVC110 M12/M18 A3035 RMK AO2 SLP283 T11221183
                 410941156 $ =
2019-01-17 22:53 METAR KBGR 180353Z 00000KT 10SM BKN120 OVC250 M12/M18 A3037 RMK AO2 SLP290
                 T11221178 $ =
2019-01-17 21:53 METAR KBGR 180253Z 00000KT 10SM BKN250 M13/M18 A3038 RMK AO2 SLP292 T11281183
                 55001 $ =
2019-01-17 20:53 METAR KBGR 180153Z 12003KT 10SM SCT250 M13/M21 A3037 RMK AO2 SLP289 T11331206 $
                 =
2019-01-17 19:53 METAR KBGR 180053Z 00000KT 10SM SCT250 M14/M19 A3038 RMK AO2 SLP293 T11441189 $
                 =
2019-01-17 18:53 METAR KBGR 172353Z 00000KT 10SM FEW250 M14/M20 A3038 RMK AO2 SLP294 4/001
                 T11441200 11094 21144 53016 $ =
2019-01-17 17:53 METAR KBGR 172253Z 02003KT 10SM FEW250 M13/M19 A3035 RMK AO2 SLP285 T11331194 =
2019-01-17 16:53 METAR KBGR 172153Z 35003KT 10SM FEW250 M12/M19 A3035 RMK AO2 SLP283 T11221189 =
2019-01-17 15:53 METAR KBGR 172053Z 00000KT 10SM FEW250 M10/M21 A3033 RMK AO2 SLP277 T11001211
                 50001 =
2019-01-17 14:53 METAR KBGR 171953Z VRB04KT 10SM CLR M09/M22 A3033 RMK AO2 SLP278 T10941217 =
2019-01-17 13:53 METAR KBGR 171853Z 30007KT 10SM FEW200 M10/M22 A3033 RMK AO2 SLP277 T11001217 =
2019-01-17 12:53 METAR KBGR 171753Z COR 33013KT 10SM CLR M11/M22 A3033 RMK AO2 SLP276 T11061217
                 11106 21156 4/001 58011 =
2019-01-17 11:53 METAR KBGR 171653Z 32007KT 10SM FEW200 M12/M22 A3034 RMK AO2 SLP278 T11171217 =
2019-01-17 10:53 METAR KBGR 171553Z 32012G18KT 10SM CLR M13/M22 A3036 RMK AO2 SLP285 T11281217 =
2019-01-17 09:53 METAR KBGR 171453Z 31010KT 10SM CLR M14/M23 A3036 RMK AO2 SLP287 T11391228 51020
                 $ =
2019-01-17 08:53 METAR KBGR 171353Z 30013G21KT 10SM CLR M14/M23 A3035 RMK AO2 SLP282 T11441228 $
                 =
2019-01-17 07:53 METAR KBGR 171253Z 31009KT 10SM CLR M16/M22 A3033 RMK AO2 SLP276 T11561217 $ =
2019-01-17 06:53 METAR KBGR 171153Z 31010KT 10SM CLR M16/M22 A3030 RMK AO2 SLP267 4/001 T11561217
                 11106 21156 53026 $ =
2019-01-17 05:53 METAR KBGR 171053Z 31006KT 10SM CLR M16/M21 A3028 RMK AO2 SLP257 T11561211 $ =
2019-01-17 04:53 METAR KBGR 170953Z 30005KT 10SM CLR M15/M21 A3025 RMK AO2 SLP250 T11501211 $ =
2019-01-17 03:53 METAR KBGR 170853Z 30008KT 10SM CLR M14/M21 A3023 RMK AO2 SLP240 T11441211 51037
                 $ =
2019-01-17 02:53 METAR KBGR 170753Z 31012KT 10SM CLR M13/M21 A3021 RMK AO2 SLP232 T11331211 $ =

Support USWX by starting your Amazon purchase here.